createdAt,value
2023-02-16T00:01:34.262Z,18.65
2023-02-16T00:04:02.963Z,18.63
2023-02-16T00:06:32.648Z,18.65
2023-02-16T00:09:00.918Z,18.66
2023-02-16T00:11:49.541Z,18.65
2023-02-16T00:14:22.728Z,18.64
2023-02-16T00:16:53.487Z,18.60
2023-02-16T00:19:24.335Z,18.64
2023-02-16T00:21:54.551Z,18.64
2023-02-16T00:24:23.695Z,18.53
2023-02-16T00:26:52.147Z,18.64
2023-02-16T00:29:26.662Z,18.57
2023-02-16T00:31:55.591Z,18.63
2023-02-16T00:34:33.243Z,18.65
2023-02-16T00:37:04.467Z,18.64
2023-02-16T00:39:34.224Z,18.62
2023-02-16T00:42:05.062Z,18.63
2023-02-16T00:44:39.211Z,18.65
2023-02-16T00:47:19.974Z,18.65
2023-02-16T00:49:49.314Z,18.65
2023-02-16T00:52:31.437Z,18.66
2023-02-16T00:55:00.500Z,18.65
2023-02-16T00:57:32.239Z,18.49
2023-02-16T01:00:06.554Z,18.65
2023-02-16T01:02:35.634Z,18.34
2023-02-16T01:05:04.623Z,18.56
2023-02-16T01:07:49.012Z,18.65
2023-02-16T01:10:36.220Z,18.64
2023-02-16T01:13:05.184Z,18.44
2023-02-16T01:15:35.510Z,18.64
2023-02-16T01:18:04.940Z,18.63
2023-02-16T01:20:34.215Z,18.65
2023-02-16T01:23:02.455Z,18.47
2023-02-16T01:25:32.079Z,18.65
2023-02-16T01:28:00.830Z,18.63
2023-02-16T01:30:29.377Z,18.64
2023-02-16T01:32:59.915Z,18.63
2023-02-16T01:35:33.526Z,18.39
2023-02-16T01:38:01.580Z,18.49
2023-02-16T01:40:39.615Z,18.62
2023-02-16T01:43:19.953Z,18.64
2023-02-16T01:45:52.760Z,18.64
2023-02-16T01:48:29.274Z,18.62
2023-02-16T01:51:04.870Z,18.49
2023-02-16T01:53:37.387Z,18.65
2023-02-16T01:56:12.408Z,18.62
2023-02-16T01:58:46.854Z,18.65
2023-02-16T02:01:45.394Z,18.65
2023-02-16T02:04:44.134Z,18.65
2023-02-16T02:07:20.466Z,18.63
2023-02-16T02:09:57.886Z,18.41
2023-02-16T02:12:33.660Z,18.48
2023-02-16T02:15:01.833Z,18.53
2023-02-16T02:17:32.285Z,18.64
2023-02-16T02:20:12.180Z,18.64
2023-02-16T02:23:34.237Z,18.63
2023-02-16T02:26:46.688Z,18.63
2023-02-16T02:29:44.050Z,18.62
2023-02-16T02:32:24.579Z,18.61
2023-02-16T02:35:03.404Z,18.61
2023-02-16T02:37:42.909Z,18.51
2023-02-16T02:40:21.499Z,18.59
2023-02-16T02:42:58.642Z,18.61
2023-02-16T02:45:32.914Z,18.60
2023-02-16T02:48:01.470Z,18.61
2023-02-16T02:51:03.857Z,18.15
2023-02-16T02:53:34.127Z,18.48
2023-02-16T02:56:21.900Z,18.32
2023-02-16T02:59:12.796Z,18.62
2023-02-16T03:01:54.003Z,18.32
2023-02-16T03:04:27.308Z,18.61
2023-02-16T03:06:58.259Z,18.41
2023-02-16T03:09:27.242Z,18.62
2023-02-16T03:12:15.250Z,18.64
2023-02-16T03:14:47.469Z,18.64
2023-02-16T03:17:36.796Z,18.65
2023-02-16T03:20:27.004Z,18.55
2023-02-16T03:23:12.851Z,18.52
2023-02-16T03:25:59.206Z,18.64
2023-02-16T03:28:48.921Z,18.57
2023-02-16T03:31:20.843Z,18.65
2023-02-16T03:33:55.819Z,18.64
2023-02-16T03:36:26.455Z,18.65
2023-02-16T03:38:56.989Z,18.63
2023-02-16T03:41:26.567Z,18.63
2023-02-16T03:43:54.721Z,18.61
2023-02-16T03:46:23.313Z,18.64
2023-02-16T03:48:53.238Z,18.65
2023-02-16T03:51:21.318Z,18.65
2023-02-16T03:53:50.295Z,18.64
2023-02-16T03:56:19.967Z,18.65
2023-02-16T03:58:48.254Z,18.50
2023-02-16T04:01:16.576Z,18.66
2023-02-16T04:03:44.950Z,18.57
2023-02-16T04:06:14.590Z,18.65
2023-02-16T04:08:43.979Z,18.66
2023-02-16T04:11:25.959Z,18.46
2023-02-16T04:13:54.725Z,18.66
2023-02-16T04:16:23.065Z,18.64
2023-02-16T04:18:51.662Z,18.58
2023-02-16T04:21:21.780Z,18.64
2023-02-16T04:23:50.058Z,18.66
2023-02-16T04:26:18.894Z,18.66
2023-02-16T04:28:47.895Z,18.64
2023-02-16T04:31:16.266Z,18.66
2023-02-16T04:33:44.564Z,18.66
2023-02-16T04:36:13.623Z,18.66
2023-02-16T04:38:43.701Z,18.66
2023-02-16T04:41:13.380Z,18.60
2023-02-16T04:43:42.257Z,18.67
2023-02-16T04:46:10.471Z,18.66
2023-02-16T04:48:38.667Z,18.67
2023-02-16T04:51:07.391Z,18.67
2023-02-16T04:53:35.570Z,18.66
2023-02-16T04:56:06.541Z,18.67
2023-02-16T04:58:35.640Z,18.67
2023-02-16T05:01:04.863Z,18.67
2023-02-16T05:03:33.234Z,18.66
2023-02-16T05:06:04.778Z,18.68
2023-02-16T05:08:34.189Z,18.37
2023-02-16T05:11:19.891Z,18.66
2023-02-16T05:14:06.982Z,18.66
2023-02-16T05:16:35.632Z,18.67
2023-02-16T05:19:04.948Z,18.67
2023-02-16T05:21:33.756Z,18.68
2023-02-16T05:24:04.003Z,18.67
2023-02-16T05:26:33.040Z,18.68
2023-02-16T05:29:03.702Z,18.67
2023-02-16T05:31:32.126Z,18.66
2023-02-16T05:34:00.355Z,18.66
2023-02-16T05:36:29.167Z,18.66
2023-02-16T05:38:58.838Z,18.65
2023-02-16T05:41:27.412Z,18.66
2023-02-16T05:43:58.146Z,18.63
2023-02-16T05:46:29.341Z,18.49
2023-02-16T05:48:57.911Z,18.64
2023-02-16T05:51:26.892Z,18.68
2023-02-16T05:53:56.011Z,18.45
2023-02-16T05:56:25.214Z,18.65
2023-02-16T05:58:54.015Z,18.65
2023-02-16T06:01:22.609Z,18.72
2023-02-16T06:03:53.117Z,18.75
2023-02-16T06:06:22.047Z,18.78
2023-02-16T06:08:50.201Z,18.76
2023-02-16T06:11:35.734Z,18.80
2023-02-16T06:14:05.049Z,18.26
2023-02-16T06:16:34.670Z,18.66
2023-02-16T06:19:05.571Z,18.82
2023-02-16T06:21:34.388Z,18.83
2023-02-16T06:24:02.843Z,18.84
2023-02-16T06:26:31.218Z,18.71
2023-02-16T06:28:59.465Z,18.84
2023-02-16T06:31:28.281Z,18.70
2023-02-16T06:33:57.461Z,18.87
2023-02-16T06:36:27.194Z,18.88
2023-02-16T06:38:56.725Z,18.88
2023-02-16T06:41:35.908Z,18.88
2023-02-16T06:44:12.605Z,18.88
2023-02-16T06:46:40.900Z,18.89
2023-02-16T06:49:09.326Z,18.89
2023-02-16T06:51:38.874Z,18.91
2023-02-16T06:54:07.639Z,18.71
2023-02-16T06:56:37.786Z,18.90
2023-02-16T06:59:06.780Z,18.76
2023-02-16T07:01:35.691Z,18.81
2023-02-16T07:04:03.939Z,18.92
2023-02-16T07:06:32.567Z,18.92
2023-02-16T07:09:03.018Z,18.93
2023-02-16T07:11:31.302Z,18.93
2023-02-16T07:14:01.509Z,18.93
2023-02-16T07:16:30.309Z,18.49
2023-02-16T07:18:58.896Z,18.77
2023-02-16T07:21:27.090Z,18.94
2023-02-16T07:23:55.278Z,18.94
2023-02-16T07:26:25.048Z,18.77
2023-02-16T07:28:53.789Z,18.93
2023-02-16T07:31:27.063Z,18.94
2023-02-16T07:33:55.378Z,18.96
2023-02-16T07:36:23.601Z,18.91
2023-02-16T07:38:51.990Z,18.96
2023-02-16T07:41:20.873Z,18.93
2023-02-16T07:43:51.055Z,18.97
2023-02-16T07:46:19.464Z,18.96
2023-02-16T07:48:49.185Z,18.98
2023-02-16T07:51:23.146Z,18.98
2023-02-16T07:53:52.307Z,18.86
2023-02-16T07:56:22.246Z,18.75
2023-02-16T07:58:53.136Z,18.98
2023-02-16T08:01:21.578Z,18.98
2023-02-16T08:03:49.723Z,18.97
2023-02-16T08:06:18.535Z,18.90
2023-02-16T08:08:47.130Z,18.70
2023-02-16T08:11:18.502Z,18.89
2023-02-16T08:13:47.842Z,18.67
2023-02-16T08:16:21.045Z,18.98
2023-02-16T08:18:51.189Z,18.97
2023-02-16T08:21:21.946Z,18.88
2023-02-16T08:23:58.035Z,18.99
2023-02-16T08:26:30.186Z,18.98
2023-02-16T08:29:15.487Z,18.98
2023-02-16T08:31:47.509Z,18.88
2023-02-16T08:34:17.732Z,18.69
2023-02-16T08:36:48.218Z,18.99
2023-02-16T08:39:19.185Z,19.00
2023-02-16T08:41:49.160Z,18.99
2023-02-16T08:44:18.729Z,18.97
2023-02-16T08:46:51.545Z,18.97
2023-02-16T08:49:22.106Z,18.98
2023-02-16T08:51:52.302Z,18.97
2023-02-16T08:54:23.014Z,18.65
2023-02-16T08:56:56.093Z,18.95
2023-02-16T08:59:28.189Z,18.96
2023-02-16T09:01:58.431Z,18.99
2023-02-16T09:04:31.080Z,18.98
2023-02-16T09:06:59.903Z,18.84
2023-02-16T09:09:29.015Z,18.99
2023-02-16T09:11:57.897Z,18.99
2023-02-16T09:14:26.576Z,18.85
2023-02-16T09:16:54.817Z,18.99
2023-02-16T09:19:26.298Z,18.81
2023-02-16T09:21:56.385Z,19.00
2023-02-16T09:24:24.902Z,19.00
2023-02-16T09:26:53.286Z,19.01
2023-02-16T09:29:22.055Z,19.00
2023-02-16T09:31:50.473Z,18.88
2023-02-16T09:34:20.587Z,19.02
2023-02-16T09:36:51.021Z,19.02
2023-02-16T09:39:21.147Z,18.94
2023-02-16T09:42:09.061Z,19.02
2023-02-16T09:44:49.892Z,19.01
2023-02-16T09:47:24.328Z,19.01
2023-02-16T09:49:53.987Z,19.01
2023-02-16T09:52:31.162Z,18.88
2023-02-16T09:55:01.992Z,18.98
2023-02-16T09:57:42.613Z,19.03
2023-02-16T10:00:23.560Z,19.04
2023-02-16T10:02:58.111Z,19.04
2023-02-16T10:05:31.135Z,19.05
2023-02-16T10:08:07.758Z,19.05
2023-02-16T10:10:47.183Z,19.04
2023-02-16T10:13:25.145Z,18.96
2023-02-16T10:15:55.334Z,18.86
2023-02-16T10:18:30.745Z,19.02
2023-02-16T10:21:03.985Z,18.86
2023-02-16T10:23:45.491Z,18.97
2023-02-16T10:26:21.550Z,19.00
2023-02-16T10:28:51.818Z,19.01
2023-02-16T10:31:25.154Z,18.89
2023-02-16T10:34:08.655Z,18.81
2023-02-16T10:36:51.974Z,19.01
2023-02-16T10:39:28.966Z,18.99
2023-02-16T10:42:03.737Z,19.01
2023-02-16T10:44:36.444Z,18.84
2023-02-16T10:47:06.814Z,18.98
2023-02-16T10:49:37.314Z,19.01
2023-02-16T10:52:06.705Z,19.01
2023-02-16T10:54:37.369Z,19.01
2023-02-16T10:57:07.980Z,19.01
2023-02-16T10:59:40.474Z,19.00
2023-02-16T11:02:20.487Z,19.00
2023-02-16T11:04:52.789Z,19.01
2023-02-16T11:07:22.808Z,18.74
2023-02-16T11:09:55.658Z,19.02
2023-02-16T11:12:32.681Z,19.03
2023-02-16T11:15:04.544Z,19.02
2023-02-16T11:17:49.064Z,18.82
2023-02-16T11:20:30.171Z,19.02
2023-02-16T11:23:16.768Z,19.03
2023-02-16T11:25:56.117Z,18.97
2023-02-16T11:28:32.360Z,18.94
2023-02-16T11:31:12.136Z,18.84
2023-02-16T11:33:41.633Z,19.00
2023-02-16T11:36:28.605Z,18.94
2023-02-16T11:39:00.319Z,18.95
2023-02-16T11:41:30.858Z,18.94
2023-02-16T11:44:00.484Z,18.93
2023-02-16T11:46:29.097Z,18.92
2023-02-16T11:48:57.200Z,18.84
2023-02-16T11:51:34.786Z,18.65
2023-02-16T11:54:05.262Z,18.96
2023-02-16T11:56:36.308Z,18.99
2023-02-16T11:59:14.072Z,18.69
2023-02-16T12:01:56.626Z,18.99
2023-02-16T12:04:38.374Z,19.00
2023-02-16T12:07:16.635Z,19.00
2023-02-16T12:09:55.518Z,18.99
2023-02-16T12:12:34.928Z,18.70
2023-02-16T12:15:14.569Z,18.97
2023-02-16T12:17:59.204Z,18.83
2023-02-16T12:20:38.829Z,19.01
2023-02-16T12:23:20.539Z,19.00
2023-02-16T12:25:58.287Z,19.01
2023-02-16T12:28:37.422Z,19.02
2023-02-16T12:31:22.701Z,19.00
2023-02-16T12:33:58.907Z,18.61
2023-02-16T12:36:42.159Z,19.00
2023-02-16T12:39:18.935Z,19.00
2023-02-16T12:42:11.105Z,19.00
2023-02-16T12:44:46.512Z,18.99
2023-02-16T12:47:21.064Z,18.87
2023-02-16T12:49:54.891Z,19.00
2023-02-16T12:52:32.392Z,18.72
2023-02-16T12:55:12.482Z,19.03
2023-02-16T12:57:51.004Z,19.12
2023-02-16T13:00:27.175Z,19.17
2023-02-16T13:03:16.428Z,19.20
2023-02-16T13:05:48.826Z,19.23
2023-02-16T13:08:26.113Z,19.25
2023-02-16T13:10:59.202Z,19.25
2023-02-16T13:13:33.035Z,19.23
2023-02-16T13:16:17.551Z,19.26
2023-02-16T13:18:57.601Z,19.27
2023-02-16T13:21:51.170Z,19.29
2023-02-16T13:24:33.723Z,19.30
2023-02-16T13:27:16.508Z,19.30
2023-02-16T13:30:08.976Z,19.32
2023-02-16T13:33:01.132Z,19.31
2023-02-16T13:35:58.760Z,19.31
2023-02-16T13:39:04.518Z,19.10
2023-02-16T13:41:59.361Z,19.32
2023-02-16T13:44:43.993Z,19.32
2023-02-16T13:47:16.301Z,19.33
2023-02-16T13:49:48.235Z,19.03
2023-02-16T13:52:31.960Z,19.22
2023-02-16T13:55:01.515Z,19.34
2023-02-16T13:58:05.936Z,19.35
2023-02-16T14:00:38.328Z,19.35
2023-02-16T14:03:13.390Z,19.34
2023-02-16T14:05:44.614Z,19.14
2023-02-16T14:08:21.832Z,19.35
2023-02-16T14:11:03.090Z,19.35
2023-02-16T14:13:34.411Z,19.35
2023-02-16T14:16:09.087Z,19.35
2023-02-16T14:18:44.344Z,19.34
2023-02-16T14:21:28.681Z,19.36
2023-02-16T14:23:58.656Z,19.36
2023-02-16T14:26:27.536Z,19.35
2023-02-16T14:29:18.188Z,19.36
2023-02-16T14:31:55.395Z,19.34
2023-02-16T14:34:29.402Z,19.17
2023-02-16T14:37:29.277Z,19.34
2023-02-16T14:40:12.446Z,19.36
2023-02-16T14:42:49.436Z,19.35
2023-02-16T14:45:45.655Z,19.36
2023-02-16T14:48:28.873Z,19.35
2023-02-16T14:51:18.273Z,19.36
2023-02-16T14:54:23.488Z,19.34
2023-02-16T14:56:54.110Z,19.34
2023-02-16T14:59:31.650Z,19.34
2023-02-16T15:02:00.432Z,19.34
2023-02-16T15:04:29.606Z,19.35
2023-02-16T15:06:59.896Z,19.35
2023-02-16T15:09:32.652Z,19.36
2023-02-16T15:12:21.863Z,19.37
2023-02-16T15:14:52.058Z,19.35
2023-02-16T15:17:29.205Z,19.36
2023-02-16T15:20:04.182Z,19.37
2023-02-16T15:22:33.591Z,19.37
2023-02-16T15:25:05.857Z,19.36
2023-02-16T15:27:34.098Z,19.37
2023-02-16T15:30:21.612Z,19.37
2023-02-16T15:32:54.851Z,19.36
2023-02-16T15:35:29.349Z,19.35
2023-02-16T15:38:06.631Z,19.37
2023-02-16T15:40:36.936Z,19.37
2023-02-16T15:43:15.490Z,19.36
2023-02-16T15:45:43.771Z,19.37
2023-02-16T15:48:24.900Z,19.37
2023-02-16T15:50:55.138Z,19.38
2023-02-16T15:53:34.943Z,19.13
2023-02-16T15:56:14.180Z,19.38
2023-02-16T15:58:42.931Z,19.38
2023-02-16T16:01:15.438Z,19.24
2023-02-16T16:03:46.688Z,19.38
2023-02-16T16:06:14.885Z,19.14
2023-02-16T16:08:43.347Z,19.38
2023-02-16T16:11:13.258Z,19.37
2023-02-16T16:13:41.801Z,19.18
2023-02-16T16:16:10.155Z,19.37
2023-02-16T16:18:45.116Z,19.38
2023-02-16T16:21:17.377Z,19.37
2023-02-16T16:23:55.480Z,19.37
2023-02-16T16:26:26.580Z,19.36
2023-02-16T16:28:55.191Z,19.37
2023-02-16T16:31:41.984Z,19.39
2023-02-16T16:34:12.788Z,19.35
2023-02-16T16:36:48.073Z,19.37
2023-02-16T16:39:23.824Z,19.37
2023-02-16T16:42:26.628Z,19.36
2023-02-16T16:45:06.132Z,19.36
2023-02-16T16:47:37.970Z,19.37
2023-02-16T16:50:29.333Z,19.36
2023-02-16T16:52:58.169Z,19.36
2023-02-16T16:55:30.678Z,19.33
2023-02-16T16:58:01.838Z,19.32
2023-02-16T17:00:34.237Z,19.33
2023-02-16T17:03:04.918Z,19.30
2023-02-16T17:05:33.327Z,19.29
2023-02-16T17:08:01.478Z,19.29
2023-02-16T17:10:29.827Z,18.88
2023-02-16T17:13:01.094Z,19.26
2023-02-16T17:15:44.449Z,19.27
2023-02-16T17:18:17.223Z,19.22
2023-02-16T17:20:45.647Z,19.22
2023-02-16T17:23:14.652Z,19.24
2023-02-16T17:25:42.872Z,19.23
2023-02-16T17:28:13.830Z,19.21
2023-02-16T17:30:42.754Z,19.21
2023-02-16T17:33:11.466Z,19.07
2023-02-16T17:35:41.688Z,19.22
2023-02-16T17:38:11.317Z,19.22
2023-02-16T17:40:41.397Z,19.21
2023-02-16T17:43:15.861Z,19.20
2023-02-16T17:45:44.634Z,19.21
2023-02-16T17:48:17.593Z,19.20
2023-02-16T17:50:46.160Z,19.19
2023-02-16T17:53:15.535Z,19.19
2023-02-16T17:55:44.124Z,19.19
2023-02-16T17:58:12.918Z,19.21
2023-02-16T18:00:44.004Z,19.21
2023-02-16T18:03:12.224Z,19.25
2023-02-16T18:05:40.807Z,19.26
2023-02-16T18:08:09.209Z,19.28
2023-02-16T18:10:41.786Z,19.09
2023-02-16T18:13:11.632Z,19.30
2023-02-16T18:15:40.609Z,19.30
2023-02-16T18:18:10.589Z,19.29
2023-02-16T18:20:38.876Z,19.26
2023-02-16T18:23:06.939Z,19.25
2023-02-16T18:25:36.098Z,19.24
2023-02-16T18:28:04.527Z,19.24
2023-02-16T18:30:32.733Z,19.23
2023-02-16T18:33:00.839Z,19.22
2023-02-16T18:35:31.907Z,19.23
2023-02-16T18:37:59.958Z,19.22
2023-02-16T18:40:28.804Z,19.16
2023-02-16T18:42:59.820Z,19.01
2023-02-16T18:45:31.338Z,18.83
2023-02-16T18:47:59.718Z,18.84
2023-02-16T18:50:33.186Z,19.00
2023-02-16T18:53:01.926Z,19.07
2023-02-16T18:55:33.390Z,19.09
2023-02-16T18:58:08.791Z,19.08
2023-02-16T19:00:37.301Z,19.08
2023-02-16T19:03:06.119Z,18.89
2023-02-16T19:05:37.330Z,19.07
2023-02-16T19:08:08.588Z,18.90
2023-02-16T19:10:36.896Z,19.06
2023-02-16T19:13:07.149Z,19.05
2023-02-16T19:15:35.624Z,19.04
2023-02-16T19:18:04.927Z,19.06
2023-02-16T19:20:33.198Z,19.07
2023-02-16T19:23:02.819Z,19.07
2023-02-16T19:25:33.880Z,19.06
2023-02-16T19:28:02.566Z,18.74
2023-02-16T19:30:30.894Z,19.04
2023-02-16T19:33:00.054Z,18.80
2023-02-16T19:35:28.325Z,19.05
2023-02-16T19:37:56.829Z,19.04
2023-02-16T19:40:27.070Z,19.07
2023-02-16T19:42:55.713Z,19.04
2023-02-16T19:45:24.919Z,19.07
2023-02-16T19:47:53.449Z,18.25
2023-02-16T19:50:24.731Z,19.07
2023-02-16T19:52:52.847Z,19.07
2023-02-16T19:55:21.967Z,19.06
2023-02-16T19:57:51.798Z,19.07
2023-02-16T20:00:20.280Z,18.84
2023-02-16T20:02:48.437Z,19.07
2023-02-16T20:05:17.201Z,18.92
2023-02-16T20:07:45.563Z,19.07
2023-02-16T20:10:14.021Z,19.07
2023-02-16T20:12:42.378Z,19.07
2023-02-16T20:15:16.016Z,18.88
2023-02-16T20:17:46.459Z,18.89
2023-02-16T20:20:15.101Z,19.09
2023-02-16T20:22:44.961Z,19.09
2023-02-16T20:25:13.247Z,19.09
2023-02-16T20:27:42.318Z,19.09
2023-02-16T20:30:17.751Z,19.08
2023-02-16T20:32:47.118Z,19.08
2023-02-16T20:35:15.491Z,19.08
2023-02-16T20:37:45.336Z,19.08
2023-02-16T20:40:14.285Z,19.07
2023-02-16T20:42:42.453Z,19.00
2023-02-16T20:45:12.517Z,19.07
2023-02-16T20:47:41.208Z,19.08
2023-02-16T20:50:11.186Z,18.80
2023-02-16T20:52:44.592Z,18.99
2023-02-16T20:55:14.544Z,19.07
2023-02-16T20:57:43.990Z,19.08
2023-02-16T21:00:20.402Z,19.09
2023-02-16T21:02:49.315Z,18.88
2023-02-16T21:05:18.695Z,18.96
2023-02-16T21:07:49.144Z,19.10
2023-02-16T21:10:18.759Z,18.90
2023-02-16T21:12:47.146Z,19.09
2023-02-16T21:15:16.785Z,19.10
2023-02-16T21:17:45.928Z,18.91
2023-02-16T21:20:14.303Z,19.09
2023-02-16T21:22:42.852Z,19.10
2023-02-16T21:25:11.978Z,19.09
2023-02-16T21:27:42.255Z,19.10
2023-02-16T21:30:12.033Z,19.09
2023-02-16T21:32:41.677Z,19.09
2023-02-16T21:35:09.893Z,19.10
2023-02-16T21:37:39.372Z,19.09
2023-02-16T21:40:26.351Z,19.10
2023-02-16T21:42:55.365Z,19.10
2023-02-16T21:45:24.763Z,18.97
2023-02-16T21:48:11.921Z,19.09
2023-02-16T21:50:41.802Z,18.98
2023-02-16T21:53:10.724Z,18.96
2023-02-16T21:56:08.276Z,19.09
2023-02-16T21:58:36.958Z,19.09
2023-02-16T22:01:05.380Z,19.07
2023-02-16T22:03:36.666Z,18.83
2023-02-16T22:06:05.508Z,19.10
2023-02-16T22:08:38.070Z,18.83
2023-02-16T22:11:08.016Z,19.09
2023-02-16T22:13:37.906Z,19.07
2023-02-16T22:16:14.348Z,19.04
2023-02-16T22:18:45.900Z,18.84
2023-02-16T22:21:14.521Z,19.01
2023-02-16T22:23:43.494Z,19.00
2023-02-16T22:26:23.099Z,18.99
2023-02-16T22:28:52.239Z,18.95
2023-02-16T22:31:21.110Z,18.96
2023-02-16T22:33:56.749Z,18.75
2023-02-16T22:36:25.041Z,18.82
2023-02-16T22:38:53.854Z,18.92
2023-02-16T22:41:23.542Z,18.82
2023-02-16T22:43:54.518Z,18.91
2023-02-16T22:46:24.175Z,18.93
2023-02-16T22:48:54.668Z,18.93
2023-02-16T22:51:25.182Z,18.92
2023-02-16T22:53:53.428Z,18.92
2023-02-16T22:56:21.606Z,18.87
2023-02-16T22:58:56.356Z,18.73
2023-02-16T23:01:26.807Z,18.90
2023-02-16T23:03:58.903Z,18.92
2023-02-16T23:06:30.683Z,18.91
2023-02-16T23:09:00.705Z,18.91
2023-02-16T23:11:29.852Z,18.83
2023-02-16T23:13:58.480Z,18.90
2023-02-16T23:16:30.963Z,18.87
2023-02-16T23:19:01.340Z,18.88
2023-02-16T23:21:36.374Z,18.88
2023-02-16T23:24:04.798Z,18.81
2023-02-16T23:26:33.874Z,18.88
2023-02-16T23:29:03.698Z,18.88
2023-02-16T23:31:38.191Z,18.87
2023-02-16T23:34:09.163Z,18.86
2023-02-16T23:36:39.317Z,18.87
2023-02-16T23:39:12.095Z,18.86
2023-02-16T23:41:41.596Z,18.85
2023-02-16T23:44:11.410Z,18.85
2023-02-16T23:46:40.067Z,18.84
2023-02-16T23:49:10.457Z,18.84
2023-02-16T23:51:38.767Z,18.77
2023-02-16T23:54:09.845Z,18.84
2023-02-16T23:56:38.225Z,18.84
2023-02-16T23:59:08.750Z,18.83
